sensor_id;sensor_type;location;lat;lon;timestamp;P1;durP1;ratioP1;P2;durP2;ratioP2
78860;SDS011;68211;45.774;15.892;2023-06-22T00:00:40;20.83;;;7.47;;
78860;SDS011;68211;45.774;15.892;2023-06-22T00:03:07;19.92;;;7.30;;
78860;SDS011;68211;45.774;15.892;2023-06-22T00:05:35;30.02;;;7.95;;
78860;SDS011;68211;45.774;15.892;2023-06-22T00:08:03;28.60;;;7.18;;
78860;SDS011;68211;45.774;15.892;2023-06-22T00:10:29;29.10;;;7.57;;
78860;SDS011;68211;45.774;15.892;2023-06-22T00:12:56;49.30;;;9.32;;
78860;SDS011;68211;45.774;15.892;2023-06-22T00:15:22;28.15;;;7.32;;
78860;SDS011;68211;45.774;15.892;2023-06-22T00:17:49;22.27;;;7.28;;
78860;SDS011;68211;45.774;15.892;2023-06-22T00:20:16;21.75;;;7.32;;
78860;SDS011;68211;45.774;15.892;2023-06-22T00:22:44;33.72;;;8.20;;
78860;SDS011;68211;45.774;15.892;2023-06-22T00:25:11;33.08;;;7.70;;
78860;SDS011;68211;45.774;15.892;2023-06-22T00:27:37;33.35;;;7.72;;
78860;SDS011;68211;45.774;15.892;2023-06-22T00:30:04;42.15;;;8.95;;
78860;SDS011;68211;45.774;15.892;2023-06-22T00:32:31;28.70;;;7.88;;
78860;SDS011;68211;45.774;15.892;2023-06-22T00:34:57;33.63;;;9.10;;
78860;SDS011;68211;45.774;15.892;2023-06-22T00:37:23;35.97;;;7.70;;
78860;SDS011;68211;45.774;15.892;2023-06-22T00:39:51;28.83;;;7.72;;
78860;SDS011;68211;45.774;15.892;2023-06-22T00:42:18;35.75;;;7.75;;
78860;SDS011;68211;45.774;15.892;2023-06-22T00:44:44;37.95;;;8.48;;
78860;SDS011;68211;45.774;15.892;2023-06-22T00:47:11;30.20;;;8.70;;
78860;SDS011;68211;45.774;15.892;2023-06-22T00:49:37;23.75;;;7.47;;
78860;SDS011;68211;45.774;15.892;2023-06-22T00:52:04;22.52;;;7.43;;
78860;SDS011;68211;45.774;15.892;2023-06-22T00:54:31;27.45;;;7.63;;
78860;SDS011;68211;45.774;15.892;2023-06-22T00:56:59;34.05;;;8.40;;
78860;SDS011;68211;45.774;15.892;2023-06-22T00:59:25;27.40;;;8.05;;
78860;SDS011;68211;45.774;15.892;2023-06-22T01:01:52;29.73;;;8.48;;
78860;SDS011;68211;45.774;15.892;2023-06-22T01:04:18;29.98;;;7.55;;
78860;SDS011;68211;45.774;15.892;2023-06-22T01:06:45;21.83;;;7.53;;
78860;SDS011;68211;45.774;15.892;2023-06-22T01:09:15;31.10;;;9.07;;
78860;SDS011;68211;45.774;15.892;2023-06-22T01:11:42;33.90;;;8.43;;
78860;SDS011;68211;45.774;15.892;2023-06-22T01:14:14;37.35;;;8.55;;
78860;SDS011;68211;45.774;15.892;2023-06-22T01:16:43;38.47;;;7.97;;
78860;SDS011;68211;45.774;15.892;2023-06-22T01:19:15;38.75;;;8.10;;
78860;SDS011;68211;45.774;15.892;2023-06-22T01:21:46;37.35;;;9.10;;
78860;SDS011;68211;45.774;15.892;2023-06-22T01:24:15;35.30;;;8.75;;
78860;SDS011;68211;45.774;15.892;2023-06-22T01:26:48;36.58;;;8.93;;
78860;SDS011;68211;45.774;15.892;2023-06-22T01:29:21;39.28;;;8.57;;
78860;SDS011;68211;45.774;15.892;2023-06-22T01:31:49;29.88;;;9.27;;
78860;SDS011;68211;45.774;15.892;2023-06-22T01:34:16;33.97;;;9.32;;
78860;SDS011;68211;45.774;15.892;2023-06-22T01:36:43;32.92;;;8.68;;
78860;SDS011;68211;45.774;15.892;2023-06-22T01:39:10;31.38;;;8.73;;
78860;SDS011;68211;45.774;15.892;2023-06-22T01:41:37;34.88;;;9.05;;
78860;SDS011;68211;45.774;15.892;2023-06-22T01:44:04;42.15;;;9.88;;
78860;SDS011;68211;45.774;15.892;2023-06-22T01:46:32;36.72;;;9.00;;
78860;SDS011;68211;45.774;15.892;2023-06-22T01:48:59;40.13;;;9.83;;
78860;SDS011;68211;45.774;15.892;2023-06-22T01:51:27;34.38;;;10.05;;
78860;SDS011;68211;45.774;15.892;2023-06-22T01:53:53;34.88;;;9.50;;
78860;SDS011;68211;45.774;15.892;2023-06-22T01:56:20;36.70;;;8.88;;
78860;SDS011;68211;45.774;15.892;2023-06-22T01:58:48;34.22;;;8.50;;
78860;SDS011;68211;45.774;15.892;2023-06-22T02:01:17;34.90;;;8.98;;
78860;SDS011;68211;45.774;15.892;2023-06-22T02:03:50;31.08;;;9.90;;
78860;SDS011;68211;45.774;15.892;2023-06-22T02:06:20;32.67;;;9.38;;
78860;SDS011;68211;45.774;15.892;2023-06-22T02:11:14;29.65;;;9.45;;
78860;SDS011;68211;45.774;15.892;2023-06-22T02:13:41;35.03;;;9.95;;
78860;SDS011;68211;45.774;15.892;2023-06-22T02:16:07;33.58;;;9.73;;
78860;SDS011;68211;45.774;15.892;2023-06-22T02:18:34;34.22;;;10.02;;
78860;SDS011;68211;45.774;15.892;2023-06-22T02:21:02;30.92;;;9.35;;
78860;SDS011;68211;45.774;15.892;2023-06-22T02:23:28;44.33;;;10.20;;
78860;SDS011;68211;45.774;15.892;2023-06-22T02:25:55;37.30;;;10.15;;
78860;SDS011;68211;45.774;15.892;2023-06-22T02:28:21;39.40;;;10.95;;
78860;SDS011;68211;45.774;15.892;2023-06-22T02:30:48;35.00;;;10.23;;
78860;SDS011;68211;45.774;15.892;2023-06-22T02:33:14;33.30;;;10.35;;
78860;SDS011;68211;45.774;15.892;2023-06-22T02:35:40;36.55;;;9.85;;
78860;SDS011;68211;45.774;15.892;2023-06-22T02:38:08;41.55;;;10.38;;
78860;SDS011;68211;45.774;15.892;2023-06-22T02:40:35;50.55;;;10.77;;
78860;SDS011;68211;45.774;15.892;2023-06-22T02:43:01;34.90;;;10.07;;
78860;SDS011;68211;45.774;15.892;2023-06-22T02:45:28;38.92;;;10.00;;
78860;SDS011;68211;45.774;15.892;2023-06-22T02:47:54;28.67;;;10.25;;
78860;SDS011;68211;45.774;15.892;2023-06-22T02:50:21;45.83;;;10.90;;
78860;SDS011;68211;45.774;15.892;2023-06-22T02:52:47;36.25;;;11.05;;
78860;SDS011;68211;45.774;15.892;2023-06-22T02:55:15;35.30;;;10.48;;
78860;SDS011;68211;45.774;15.892;2023-06-22T02:57:42;43.67;;;11.25;;
78860;SDS011;68211;45.774;15.892;2023-06-22T03:00:09;37.97;;;10.93;;
78860;SDS011;68211;45.774;15.892;2023-06-22T03:02:35;38.55;;;11.65;;
78860;SDS011;68211;45.774;15.892;2023-06-22T03:05:02;34.50;;;10.98;;
78860;SDS011;68211;45.774;15.892;2023-06-22T03:07:29;44.40;;;11.73;;
78860;SDS011;68211;45.774;15.892;2023-06-22T03:09:55;42.20;;;10.45;;
78860;SDS011;68211;45.774;15.892;2023-06-22T03:12:23;37.55;;;11.57;;
78860;SDS011;68211;45.774;15.892;2023-06-22T03:14:49;57.15;;;11.88;;
78860;SDS011;68211;45.774;15.892;2023-06-22T03:17:16;35.00;;;11.13;;
78860;SDS011;68211;45.774;15.892;2023-06-22T03:19:42;39.65;;;11.40;;
78860;SDS011;68211;45.774;15.892;2023-06-22T03:22:09;38.38;;;10.70;;
78860;SDS011;68211;45.774;15.892;2023-06-22T03:24:39;42.67;;;11.30;;
78860;SDS011;68211;45.774;15.892;2023-06-22T03:27:06;45.05;;;11.30;;
78860;SDS011;68211;45.774;15.892;2023-06-22T03:29:33;39.28;;;11.00;;
78860;SDS011;68211;45.774;15.892;2023-06-22T03:32:00;39.92;;;11.13;;
78860;SDS011;68211;45.774;15.892;2023-06-22T03:34:27;46.03;;;11.60;;
78860;SDS011;68211;45.774;15.892;2023-06-22T03:36:53;47.33;;;11.77;;
78860;SDS011;68211;45.774;15.892;2023-06-22T03:39:19;38.83;;;10.93;;
78860;SDS011;68211;45.774;15.892;2023-06-22T03:41:46;45.90;;;12.13;;
78860;SDS011;68211;45.774;15.892;2023-06-22T03:44:12;42.30;;;11.35;;
78860;SDS011;68211;45.774;15.892;2023-06-22T03:46:40;34.20;;;10.60;;
78860;SDS011;68211;45.774;15.892;2023-06-22T03:49:07;41.33;;;11.55;;
78860;SDS011;68211;45.774;15.892;2023-06-22T03:51:33;46.05;;;11.50;;
78860;SDS011;68211;45.774;15.892;2023-06-22T03:53:59;55.88;;;11.20;;
78860;SDS011;68211;45.774;15.892;2023-06-22T03:56:26;42.83;;;11.80;;
78860;SDS011;68211;45.774;15.892;2023-06-22T03:58:52;37.97;;;11.90;;
78860;SDS011;68211;45.774;15.892;2023-06-22T04:01:19;52.83;;;12.02;;
78860;SDS011;68211;45.774;15.892;2023-06-22T04:03:47;57.25;;;12.20;;
78860;SDS011;68211;45.774;15.892;2023-06-22T04:06:14;44.40;;;12.38;;
78860;SDS011;68211;45.774;15.892;2023-06-22T04:08:40;38.42;;;12.05;;
78860;SDS011;68211;45.774;15.892;2023-06-22T04:11:07;39.92;;;12.07;;
78860;SDS011;68211;45.774;15.892;2023-06-22T04:13:33;46.65;;;12.15;;
78860;SDS011;68211;45.774;15.892;2023-06-22T04:16:00;48.78;;;12.65;;
78860;SDS011;68211;45.774;15.892;2023-06-22T04:18:26;45.65;;;11.65;;
78860;SDS011;68211;45.774;15.892;2023-06-22T04:20:54;57.53;;;13.15;;
78860;SDS011;68211;45.774;15.892;2023-06-22T04:23:20;53.28;;;12.10;;
78860;SDS011;68211;45.774;15.892;2023-06-22T04:25:47;40.63;;;11.32;;
78860;SDS011;68211;45.774;15.892;2023-06-22T04:28:13;42.13;;;11.82;;
78860;SDS011;68211;45.774;15.892;2023-06-22T04:30:40;46.00;;;12.48;;
78860;SDS011;68211;45.774;15.892;2023-06-22T04:33:07;45.83;;;13.18;;
78860;SDS011;68211;45.774;15.892;2023-06-22T04:35:33;59.15;;;14.07;;
78860;SDS011;68211;45.774;15.892;2023-06-22T04:38:01;47.53;;;12.65;;
78860;SDS011;68211;45.774;15.892;2023-06-22T04:40:27;57.30;;;14.63;;
78860;SDS011;68211;45.774;15.892;2023-06-22T04:42:54;54.10;;;14.13;;
78860;SDS011;68211;45.774;15.892;2023-06-22T04:45:20;49.65;;;12.55;;
78860;SDS011;68211;45.774;15.892;2023-06-22T04:47:47;48.20;;;12.02;;
78860;SDS011;68211;45.774;15.892;2023-06-22T04:50:14;50.53;;;12.63;;
78860;SDS011;68211;45.774;15.892;2023-06-22T04:52:40;41.17;;;12.57;;
78860;SDS011;68211;45.774;15.892;2023-06-22T04:55:08;49.95;;;13.50;;
78860;SDS011;68211;45.774;15.892;2023-06-22T04:57:35;47.20;;;13.65;;
78860;SDS011;68211;45.774;15.892;2023-06-22T05:00:01;51.85;;;12.48;;
78860;SDS011;68211;45.774;15.892;2023-06-22T05:02:28;52.47;;;12.88;;
78860;SDS011;68211;45.774;15.892;2023-06-22T05:04:54;48.15;;;13.25;;
78860;SDS011;68211;45.774;15.892;2023-06-22T05:07:21;47.70;;;12.90;;
78860;SDS011;68211;45.774;15.892;2023-06-22T05:09:48;50.50;;;13.73;;
78860;SDS011;68211;45.774;15.892;2023-06-22T05:12:15;44.80;;;13.40;;
78860;SDS011;68211;45.774;15.892;2023-06-22T05:14:42;53.22;;;12.65;;
78860;SDS011;68211;45.774;15.892;2023-06-22T05:17:08;45.03;;;12.70;;
78860;SDS011;68211;45.774;15.892;2023-06-22T05:19:35;39.95;;;12.77;;
78860;SDS011;68211;45.774;15.892;2023-06-22T05:22:01;42.45;;;12.93;;
78860;SDS011;68211;45.774;15.892;2023-06-22T05:24:28;52.90;;;12.90;;
78860;SDS011;68211;45.774;15.892;2023-06-22T05:26:55;42.53;;;12.50;;
78860;SDS011;68211;45.774;15.892;2023-06-22T05:29:23;55.95;;;13.65;;
78860;SDS011;68211;45.774;15.892;2023-06-22T05:31:49;42.45;;;13.73;;
78860;SDS011;68211;45.774;15.892;2023-06-22T05:34:15;47.20;;;13.35;;
78860;SDS011;68211;45.774;15.892;2023-06-22T05:36:42;47.15;;;14.38;;
78860;SDS011;68211;45.774;15.892;2023-06-22T05:39:11;41.88;;;13.13;;
78860;SDS011;68211;45.774;15.892;2023-06-22T05:41:38;52.05;;;13.48;;
78860;SDS011;68211;45.774;15.892;2023-06-22T05:44:04;41.92;;;13.80;;
78860;SDS011;68211;45.774;15.892;2023-06-22T05:46:32;40.38;;;13.35;;
78860;SDS011;68211;45.774;15.892;2023-06-22T05:48:59;41.92;;;14.18;;
78860;SDS011;68211;45.774;15.892;2023-06-22T05:51:25;63.45;;;14.95;;
78860;SDS011;68211;45.774;15.892;2023-06-22T05:53:51;42.10;;;14.32;;
78860;SDS011;68211;45.774;15.892;2023-06-22T05:56:18;44.20;;;14.43;;
78860;SDS011;68211;45.774;15.892;2023-06-22T05:58:45;48.53;;;14.00;;
78860;SDS011;68211;45.774;15.892;2023-06-22T06:01:11;48.15;;;14.68;;
78860;SDS011;68211;45.774;15.892;2023-06-22T06:03:39;53.50;;;15.43;;
78860;SDS011;68211;45.774;15.892;2023-06-22T06:06:06;46.78;;;15.20;;
78860;SDS011;68211;45.774;15.892;2023-06-22T06:08:32;51.78;;;15.57;;
78860;SDS011;68211;45.774;15.892;2023-06-22T06:10:59;63.38;;;16.63;;
78860;SDS011;68211;45.774;15.892;2023-06-22T06:13:25;49.15;;;15.70;;
78860;SDS011;68211;45.774;15.892;2023-06-22T06:15:54;44.63;;;16.25;;
78860;SDS011;68211;45.774;15.892;2023-06-22T06:18:21;59.80;;;16.13;;
78860;SDS011;68211;45.774;15.892;2023-06-22T06:20:48;52.05;;;17.80;;
78860;SDS011;68211;45.774;15.892;2023-06-22T06:23:15;62.67;;;19.63;;
78860;SDS011;68211;45.774;15.892;2023-06-22T06:25:41;58.35;;;18.20;;
78860;SDS011;68211;45.774;15.892;2023-06-22T06:28:08;54.13;;;17.38;;
78860;SDS011;68211;45.774;15.892;2023-06-22T06:30:35;55.05;;;16.83;;
78860;SDS011;68211;45.774;15.892;2023-06-22T06:33:01;57.50;;;17.58;;
78860;SDS011;68211;45.774;15.892;2023-06-22T06:35:28;53.85;;;16.60;;
78860;SDS011;68211;45.774;15.892;2023-06-22T06:37:56;48.25;;;16.73;;
78860;SDS011;68211;45.774;15.892;2023-06-22T06:40:23;50.50;;;16.17;;
78860;SDS011;68211;45.774;15.892;2023-06-22T06:42:49;55.25;;;15.95;;
78860;SDS011;68211;45.774;15.892;2023-06-22T06:45:16;53.83;;;16.35;;
78860;SDS011;68211;45.774;15.892;2023-06-22T06:47:43;47.70;;;16.05;;
78860;SDS011;68211;45.774;15.892;2023-06-22T06:50:10;49.53;;;16.67;;
78860;SDS011;68211;45.774;15.892;2023-06-22T06:52:36;44.67;;;16.52;;
78860;SDS011;68211;45.774;15.892;2023-06-22T06:55:06;61.60;;;17.30;;
78860;SDS011;68211;45.774;15.892;2023-06-22T06:57:33;56.55;;;15.30;;
78860;SDS011;68211;45.774;15.892;2023-06-22T06:59:59;48.45;;;16.73;;
78860;SDS011;68211;45.774;15.892;2023-06-22T07:02:26;58.90;;;17.27;;
78860;SDS011;68211;45.774;15.892;2023-06-22T07:04:53;51.67;;;16.33;;
78860;SDS011;68211;45.774;15.892;2023-06-22T07:07:20;48.47;;;16.38;;
78860;SDS011;68211;45.774;15.892;2023-06-22T07:09:46;55.05;;;15.98;;
78860;SDS011;68211;45.774;15.892;2023-06-22T07:12:15;54.22;;;15.50;;
78860;SDS011;68211;45.774;15.892;2023-06-22T07:14:42;44.20;;;16.30;;
78860;SDS011;68211;45.774;15.892;2023-06-22T07:17:08;41.72;;;15.30;;
78860;SDS011;68211;45.774;15.892;2023-06-22T07:19:34;57.10;;;16.90;;
78860;SDS011;68211;45.774;15.892;2023-06-22T07:22:02;48.58;;;16.15;;
78860;SDS011;68211;45.774;15.892;2023-06-22T07:24:35;57.85;;;16.75;;
78860;SDS011;68211;45.774;15.892;2023-06-22T07:27:04;50.63;;;16.50;;
78860;SDS011;68211;45.774;15.892;2023-06-22T07:29:32;46.00;;;16.13;;
78860;SDS011;68211;45.774;15.892;2023-06-22T07:31:58;52.28;;;16.63;;
78860;SDS011;68211;45.774;15.892;2023-06-22T07:34:25;62.30;;;16.60;;
78860;SDS011;68211;45.774;15.892;2023-06-22T07:36:52;50.17;;;16.38;;
78860;SDS011;68211;45.774;15.892;2023-06-22T07:39:19;46.63;;;16.05;;
78860;SDS011;68211;45.774;15.892;2023-06-22T07:41:45;65.05;;;16.75;;
78860;SDS011;68211;45.774;15.892;2023-06-22T07:44:12;43.92;;;16.25;;
78860;SDS011;68211;45.774;15.892;2023-06-22T07:46:42;43.15;;;15.05;;
78860;SDS011;68211;45.774;15.892;2023-06-22T07:49:09;49.42;;;16.30;;
78860;SDS011;68211;45.774;15.892;2023-06-22T07:51:36;57.30;;;16.73;;
78860;SDS011;68211;45.774;15.892;2023-06-22T07:54:03;41.08;;;15.90;;
78860;SDS011;68211;45.774;15.892;2023-06-22T07:56:30;46.83;;;15.07;;
78860;SDS011;68211;45.774;15.892;2023-06-22T07:58:59;57.55;;;16.27;;
78860;SDS011;68211;45.774;15.892;2023-06-22T08:01:25;47.00;;;15.73;;
78860;SDS011;68211;45.774;15.892;2023-06-22T08:03:53;60.42;;;16.10;;
78860;SDS011;68211;45.774;15.892;2023-06-22T08:06:20;43.80;;;16.20;;
78860;SDS011;68211;45.774;15.892;2023-06-22T08:08:46;46.10;;;16.75;;
78860;SDS011;68211;45.774;15.892;2023-06-22T08:11:13;48.92;;;15.77;;
78860;SDS011;68211;45.774;15.892;2023-06-22T08:13:39;44.70;;;15.75;;
78860;SDS011;68211;45.774;15.892;2023-06-22T08:16:06;50.33;;;15.65;;
78860;SDS011;68211;45.774;15.892;2023-06-22T08:18:33;52.33;;;15.73;;
78860;SDS011;68211;45.774;15.892;2023-06-22T08:21:01;57.58;;;16.20;;
78860;SDS011;68211;45.774;15.892;2023-06-22T08:23:31;62.58;;;16.75;;
78860;SDS011;68211;45.774;15.892;2023-06-22T08:25:58;59.58;;;15.95;;
78860;SDS011;68211;45.774;15.892;2023-06-22T08:28:24;57.65;;;16.38;;
78860;SDS011;68211;45.774;15.892;2023-06-22T08:30:51;56.05;;;15.63;;
78860;SDS011;68211;45.774;15.892;2023-06-22T08:33:17;49.20;;;15.90;;
78860;SDS011;68211;45.774;15.892;2023-06-22T08:35:53;53.97;;;15.30;;
78860;SDS011;68211;45.774;15.892;2023-06-22T08:38:21;56.97;;;15.90;;
78860;SDS011;68211;45.774;15.892;2023-06-22T08:40:47;58.05;;;15.27;;
78860;SDS011;68211;45.774;15.892;2023-06-22T08:43:14;50.15;;;15.30;;
78860;SDS011;68211;45.774;15.892;2023-06-22T08:45:40;56.80;;;15.02;;
78860;SDS011;68211;45.774;15.892;2023-06-22T08:48:08;46.92;;;15.93;;
78860;SDS011;68211;45.774;15.892;2023-06-22T08:50:35;55.55;;;15.45;;
78860;SDS011;68211;45.774;15.892;2023-06-22T08:53:01;50.90;;;16.58;;
78860;SDS011;68211;45.774;15.892;2023-06-22T08:55:29;50.38;;;15.68;;
78860;SDS011;68211;45.774;15.892;2023-06-22T08:57:56;40.08;;;14.75;;
78860;SDS011;68211;45.774;15.892;2023-06-22T09:00:23;59.80;;;16.55;;
78860;SDS011;68211;45.774;15.892;2023-06-22T09:02:50;55.53;;;16.00;;
78860;SDS011;68211;45.774;15.892;2023-06-22T09:05:17;50.45;;;15.02;;
78860;SDS011;68211;45.774;15.892;2023-06-22T09:07:44;57.75;;;16.65;;
78860;SDS011;68211;45.774;15.892;2023-06-22T09:10:10;48.80;;;15.18;;
78860;SDS011;68211;45.774;15.892;2023-06-22T09:12:39;41.72;;;16.38;;
78860;SDS011;68211;45.774;15.892;2023-06-22T09:15:05;45.00;;;15.43;;
78860;SDS011;68211;45.774;15.892;2023-06-22T09:17:36;50.05;;;15.32;;
78860;SDS011;68211;45.774;15.892;2023-06-22T09:20:03;53.38;;;15.80;;
78860;SDS011;68211;45.774;15.892;2023-06-22T09:22:32;46.63;;;15.70;;
78860;SDS011;68211;45.774;15.892;2023-06-22T09:24:59;50.85;;;15.70;;
78860;SDS011;68211;45.774;15.892;2023-06-22T09:27:25;49.97;;;16.17;;
78860;SDS011;68211;45.774;15.892;2023-06-22T09:29:53;52.85;;;16.45;;
78860;SDS011;68211;45.774;15.892;2023-06-22T09:32:20;51.13;;;16.92;;
78860;SDS011;68211;45.774;15.892;2023-06-22T09:34:47;48.42;;;16.20;;
78860;SDS011;68211;45.774;15.892;2023-06-22T09:37:14;47.75;;;16.05;;
78860;SDS011;68211;45.774;15.892;2023-06-22T09:39:41;43.67;;;15.65;;
78860;SDS011;68211;45.774;15.892;2023-06-22T09:42:08;54.83;;;17.08;;
78860;SDS011;68211;45.774;15.892;2023-06-22T09:44:34;45.92;;;16.27;;
78860;SDS011;68211;45.774;15.892;2023-06-22T09:47:06;60.00;;;16.83;;
78860;SDS011;68211;45.774;15.892;2023-06-22T09:49:32;51.05;;;17.58;;
78860;SDS011;68211;45.774;15.892;2023-06-22T09:52:16;42.42;;;16.30;;
78860;SDS011;68211;45.774;15.892;2023-06-22T09:54:43;40.95;;;16.10;;
78860;SDS011;68211;45.774;15.892;2023-06-22T09:57:12;53.83;;;17.77;;
78860;SDS011;68211;45.774;15.892;2023-06-22T09:59:40;47.30;;;16.45;;
78860;SDS011;68211;45.774;15.892;2023-06-22T10:02:08;50.92;;;17.13;;
78860;SDS011;68211;45.774;15.892;2023-06-22T10:04:36;41.15;;;16.83;;
78860;SDS011;68211;45.774;15.892;2023-06-22T10:07:04;42.35;;;17.38;;
78860;SDS011;68211;45.774;15.892;2023-06-22T10:11:59;44.03;;;17.83;;
78860;SDS011;68211;45.774;15.892;2023-06-22T10:14:26;46.78;;;16.65;;
78860;SDS011;68211;45.774;15.892;2023-06-22T10:16:53;47.97;;;16.83;;
78860;SDS011;68211;45.774;15.892;2023-06-22T10:19:24;40.45;;;17.33;;
78860;SDS011;68211;45.774;15.892;2023-06-22T10:21:51;51.92;;;17.63;;
78860;SDS011;68211;45.774;15.892;2023-06-22T10:24:18;38.97;;;17.83;;
78860;SDS011;68211;45.774;15.892;2023-06-22T10:26:44;43.10;;;17.73;;
78860;SDS011;68211;45.774;15.892;2023-06-22T10:29:11;39.67;;;18.55;;
78860;SDS011;68211;45.774;15.892;2023-06-22T10:31:43;40.90;;;17.33;;
78860;SDS011;68211;45.774;15.892;2023-06-22T10:34:10;43.17;;;17.70;;
78860;SDS011;68211;45.774;15.892;2023-06-22T10:36:37;48.92;;;18.90;;
78860;SDS011;68211;45.774;15.892;2023-06-22T10:39:04;48.40;;;18.65;;
78860;SDS011;68211;45.774;15.892;2023-06-22T10:41:30;45.67;;;17.58;;
78860;SDS011;68211;45.774;15.892;2023-06-22T10:43:57;45.75;;;18.08;;
78860;SDS011;68211;45.774;15.892;2023-06-22T10:46:24;45.22;;;18.00;;
78860;SDS011;68211;45.774;15.892;2023-06-22T10:48:50;45.80;;;18.67;;
78860;SDS011;68211;45.774;15.892;2023-06-22T10:51:17;58.88;;;17.92;;
78860;SDS011;68211;45.774;15.892;2023-06-22T10:53:45;55.60;;;18.80;;
78860;SDS011;68211;45.774;15.892;2023-06-22T10:56:13;48.95;;;20.73;;
78860;SDS011;68211;45.774;15.892;2023-06-22T10:58:39;45.03;;;19.25;;
78860;SDS011;68211;45.774;15.892;2023-06-22T11:01:06;46.13;;;19.58;;
78860;SDS011;68211;45.774;15.892;2023-06-22T11:03:32;49.95;;;19.63;;
78860;SDS011;68211;45.774;15.892;2023-06-22T11:06:00;62.08;;;21.45;;
78860;SDS011;68211;45.774;15.892;2023-06-22T11:08:26;44.88;;;19.60;;
78860;SDS011;68211;45.774;15.892;2023-06-22T11:10:54;47.20;;;21.88;;
78860;SDS011;68211;45.774;15.892;2023-06-22T11:13:21;54.05;;;19.73;;
78860;SDS011;68211;45.774;15.892;2023-06-22T11:15:47;45.42;;;19.88;;
78860;SDS011;68211;45.774;15.892;2023-06-22T11:18:13;46.63;;;21.13;;
78860;SDS011;68211;45.774;15.892;2023-06-22T11:20:40;56.45;;;21.45;;
78860;SDS011;68211;45.774;15.892;2023-06-22T11:23:07;51.10;;;21.23;;
78860;SDS011;68211;45.774;15.892;2023-06-22T11:25:33;62.10;;;21.42;;
78860;SDS011;68211;45.774;15.892;2023-06-22T11:28:02;47.55;;;20.52;;
78860;SDS011;68211;45.774;15.892;2023-06-22T11:30:28;52.67;;;21.08;;
78860;SDS011;68211;45.774;15.892;2023-06-22T11:32:56;50.35;;;19.40;;
78860;SDS011;68211;45.774;15.892;2023-06-22T11:35:22;47.33;;;20.30;;
78860;SDS011;68211;45.774;15.892;2023-06-22T11:37:49;50.28;;;19.85;;
78860;SDS011;68211;45.774;15.892;2023-06-22T11:40:15;43.58;;;19.73;;
78860;SDS011;68211;45.774;15.892;2023-06-22T11:42:42;46.70;;;20.80;;
78860;SDS011;68211;45.774;15.892;2023-06-22T11:45:11;43.30;;;19.98;;
78860;SDS011;68211;45.774;15.892;2023-06-22T11:47:38;49.58;;;19.85;;
78860;SDS011;68211;45.774;15.892;2023-06-22T11:50:05;57.53;;;20.83;;
78860;SDS011;68211;45.774;15.892;2023-06-22T11:52:34;46.13;;;18.73;;
78860;SDS011;68211;45.774;15.892;2023-06-22T11:55:02;38.17;;;16.83;;
78860;SDS011;68211;45.774;15.892;2023-06-22T11:57:29;55.25;;;18.33;;
78860;SDS011;68211;45.774;15.892;2023-06-22T11:59:55;52.40;;;18.10;;
78860;SDS011;68211;45.774;15.892;2023-06-22T12:02:23;36.63;;;17.65;;
78860;SDS011;68211;45.774;15.892;2023-06-22T12:04:50;47.17;;;18.13;;
78860;SDS011;68211;45.774;15.892;2023-06-22T12:07:16;51.53;;;18.83;;
78860;SDS011;68211;45.774;15.892;2023-06-22T12:09:43;43.65;;;17.85;;
78860;SDS011;68211;45.774;15.892;2023-06-22T12:12:09;47.10;;;17.33;;
78860;SDS011;68211;45.774;15.892;2023-06-22T12:14:36;50.53;;;17.77;;
78860;SDS011;68211;45.774;15.892;2023-06-22T12:17:02;42.80;;;18.58;;
78860;SDS011;68211;45.774;15.892;2023-06-22T12:19:30;43.00;;;17.35;;
78860;SDS011;68211;45.774;15.892;2023-06-22T12:21:57;45.42;;;17.83;;
78860;SDS011;68211;45.774;15.892;2023-06-22T12:24:23;55.80;;;19.10;;
78860;SDS011;68211;45.774;15.892;2023-06-22T12:26:49;44.63;;;18.05;;
78860;SDS011;68211;45.774;15.892;2023-06-22T12:29:16;52.90;;;16.88;;
78860;SDS011;68211;45.774;15.892;2023-06-22T12:31:42;55.85;;;17.55;;
78860;SDS011;68211;45.774;15.892;2023-06-22T12:34:09;60.90;;;19.70;;
78860;SDS011;68211;45.774;15.892;2023-06-22T12:36:37;50.65;;;17.27;;
78860;SDS011;68211;45.774;15.892;2023-06-22T12:39:03;53.00;;;17.23;;
78860;SDS011;68211;45.774;15.892;2023-06-22T12:41:30;45.47;;;17.63;;
78860;SDS011;68211;45.774;15.892;2023-06-22T12:43:56;56.10;;;17.67;;
78860;SDS011;68211;45.774;15.892;2023-06-22T12:46:23;50.08;;;17.20;;
78860;SDS011;68211;45.774;15.892;2023-06-22T12:48:49;45.28;;;17.90;;
78860;SDS011;68211;45.774;15.892;2023-06-22T12:51:20;49.72;;;16.52;;
78860;SDS011;68211;45.774;15.892;2023-06-22T12:53:48;49.42;;;16.55;;
78860;SDS011;68211;45.774;15.892;2023-06-22T12:56:14;38.85;;;16.65;;
78860;SDS011;68211;45.774;15.892;2023-06-22T12:58:41;42.15;;;16.83;;
78860;SDS011;68211;45.774;15.892;2023-06-22T13:01:07;46.53;;;17.42;;
78860;SDS011;68211;45.774;15.892;2023-06-22T13:03:34;55.35;;;17.83;;
78860;SDS011;68211;45.774;15.892;2023-06-22T13:06:00;18.48;;;8.35;;
78860;SDS011;68211;45.774;15.892;2023-06-22T13:08:27;55.63;;;17.33;;
78860;SDS011;68211;45.774;15.892;2023-06-22T13:11:15;46.00;;;17.23;;
78860;SDS011;68211;45.774;15.892;2023-06-22T13:13:41;41.38;;;18.08;;
78860;SDS011;68211;45.774;15.892;2023-06-22T13:16:08;45.53;;;17.65;;
78860;SDS011;68211;45.774;15.892;2023-06-22T13:18:34;39.95;;;16.52;;
78860;SDS011;68211;45.774;15.892;2023-06-22T13:21:01;50.35;;;18.20;;
78860;SDS011;68211;45.774;15.892;2023-06-22T13:23:27;47.08;;;16.65;;
78860;SDS011;68211;45.774;15.892;2023-06-22T13:25:53;46.70;;;16.63;;
78860;SDS011;68211;45.774;15.892;2023-06-22T13:28:21;46.70;;;16.20;;
78860;SDS011;68211;45.774;15.892;2023-06-22T13:30:54;45.72;;;15.90;;
78860;SDS011;68211;45.774;15.892;2023-06-22T13:33:21;48.95;;;17.60;;
78860;SDS011;68211;45.774;15.892;2023-06-22T13:35:47;49.83;;;18.25;;
78860;SDS011;68211;45.774;15.892;2023-06-22T13:38:14;58.05;;;17.30;;
78860;SDS011;68211;45.774;15.892;2023-06-22T13:40:40;42.53;;;16.33;;
78860;SDS011;68211;45.774;15.892;2023-06-22T13:43:07;49.28;;;16.85;;
78860;SDS011;68211;45.774;15.892;2023-06-22T13:45:34;40.28;;;16.55;;
78860;SDS011;68211;45.774;15.892;2023-06-22T13:48:01;43.90;;;17.00;;
78860;SDS011;68211;45.774;15.892;2023-06-22T13:50:28;42.95;;;16.60;;
78860;SDS011;68211;45.774;15.892;2023-06-22T13:52:57;49.88;;;16.50;;
78860;SDS011;68211;45.774;15.892;2023-06-22T13:55:23;56.47;;;17.23;;
78860;SDS011;68211;45.774;15.892;2023-06-22T13:57:50;44.58;;;16.77;;
78860;SDS011;68211;45.774;15.892;2023-06-22T14:00:16;46.38;;;16.27;;
78860;SDS011;68211;45.774;15.892;2023-06-22T14:02:45;49.20;;;15.77;;
78860;SDS011;68211;45.774;15.892;2023-06-22T14:05:11;47.40;;;17.05;;
78860;SDS011;68211;45.774;15.892;2023-06-22T14:07:38;60.53;;;16.42;;
78860;SDS011;68211;45.774;15.892;2023-06-22T14:10:05;53.33;;;16.77;;
78860;SDS011;68211;45.774;15.892;2023-06-22T14:12:32;62.25;;;16.52;;
78860;SDS011;68211;45.774;15.892;2023-06-22T14:14:58;45.45;;;16.65;;